LLIB/RPN METAR and TAF weather

Enter ICAO airport designator
Station Type Date Time Source
LLIB METAR 2022/05/24 14:50 UTC NOAA

LLIB 241450Z AUTO 33008KT 290V010 CAVOK 28/06 Q1011


Station Type Date Time Source
LLIB Decoded METAR 2022/05/24 14:50 UTC NOAA

Galilee / Pina, Israel (LLIB) 32-58-48N 035-34-12E
May 24, 2022 - 10:50 AM EDT / 2022.05.24 1450 UTC
Wind: from the NNW (330 degrees) at 9 MPH (8 KT) (direction variable):0
Visibility: greater than 7 mile(s):0
Temperature: 82 F (28 C)
Dew Point: 42 F (6 C)
Relative Humidity: 24%
Pressure (altimeter): 29.85 in. Hg (1011 hPa)
ob: LLIB 241450Z AUTO 33008KT 290V010 CAVOK 28/06 Q1011
cycle: 15

Station Type Date Time Source
LLIB TAF 2022/05/24 12:36 UTC NOAA

TAF
AMD TAF
AMD LLIB 241533Z 2412/2512 CNL

Example: see airport list